N309N KPBI-KSRQ
Flight info
| Callsign | N309N |
|---|---|
| Flight time | 0h 56m |
| Altitude | 16000 |
| Route | WELLY LBELL CAYOO |
| Aircraft | B36T/L-G/S |
Departure
| Time | 2026-04-25 01:39 |
|---|---|
| Airport | Palm Beach International Airport (KPBI) |
Arrival
| Time | 2026-04-25 02:36 |
|---|---|
| Airport | Sarasota Bradenton International Airport (KSRQ) |
| Time | Latitude | Longitude | Altitude | Speed | Heading |
|---|---|---|---|---|---|
| 2026-04-25 00:52 | 26.67943 | -80.09708 | 20 ft | 0 kts | 181° |
| 2026-04-25 01:28 | 26.67929 | -80.09744 | 20 ft | 8 kts | 275° |
| 2026-04-25 01:28 | 26.67958 | -80.09782 | 20 ft | 5 kts | 348° |
| 2026-04-25 01:28 | 26.67981 | -80.09787 | 20 ft | 4 kts | 357° |
| 2026-04-25 01:28 | 26.68002 | -80.09800 | 20 ft | 3 kts | 56° |
| 2026-04-25 01:29 | 26.68003 | -80.09780 | 20 ft | 4 kts | 90° |
| 2026-04-25 01:29 | 26.68002 | -80.09739 | 20 ft | 6 kts | 91° |
| 2026-04-25 01:29 | 26.68001 | -80.09711 | 20 ft | 0 kts | 91° |
| 2026-04-25 01:29 | 26.68001 | -80.09706 | 20 ft | 1 kts | 91° |
| 2026-04-25 01:30 | 26.68001 | -80.09704 | 20 ft | 0 kts | 91° |
| 2026-04-25 01:31 | 26.68006 | -80.09690 | 20 ft | 5 kts | 37° |
| 2026-04-25 01:31 | 26.68037 | -80.09720 | 20 ft | 7 kts | 278° |
| 2026-04-25 01:31 | 26.68041 | -80.09777 | 20 ft | 9 kts | 272° |
| 2026-04-25 01:31 | 26.68044 | -80.09858 | 20 ft | 10 kts | 274° |
| 2026-04-25 01:32 | 26.68047 | -80.09917 | 20 ft | 6 kts | 272° |
| 2026-04-25 01:32 | 26.68049 | -80.09975 | 20 ft | 8 kts | 273° |
| 2026-04-25 01:32 | 26.68052 | -80.10027 | 20 ft | 7 kts | 272° |
| 2026-04-25 01:32 | 26.68054 | -80.10092 | 20 ft | 10 kts | 272° |
| 2026-04-25 01:33 | 26.68057 | -80.10163 | 20 ft | 8 kts | 272° |
| 2026-04-25 01:33 | 26.68060 | -80.10226 | 20 ft | 8 kts | 273° |
| 2026-04-25 01:33 | 26.68063 | -80.10288 | 20 ft | 8 kts | 273° |
| 2026-04-25 01:33 | 26.68066 | -80.10349 | 20 ft | 8 kts | 273° |
| 2026-04-25 01:34 | 26.68068 | -80.10410 | 20 ft | 8 kts | 272° |
| 2026-04-25 01:34 | 26.68071 | -80.10471 | 20 ft | 8 kts | 272° |
| 2026-04-25 01:34 | 26.68073 | -80.10520 | 20 ft | 5 kts | 273° |
| 2026-04-25 01:34 | 26.68074 | -80.10541 | 20 ft | 0 kts | 272° |
| 2026-04-25 01:38 | 26.68074 | -80.10543 | 20 ft | 2 kts | 273° |
| 2026-04-25 01:38 | 26.68075 | -80.10575 | 20 ft | 5 kts | 272° |
| 2026-04-25 01:38 | 26.68083 | -80.10617 | 20 ft | 6 kts | 313° |
| 2026-04-25 01:38 | 26.68114 | -80.10610 | 20 ft | 5 kts | 62° |
| 2026-04-25 01:39 | 26.68105 | -80.10365 | 20 ft | 76 kts | 92° |
| 2026-04-25 01:39 | 26.68099 | -80.09673 | 492 ft | 90 kts | 92° |
| 2026-04-25 01:39 | 26.68101 | -80.08932 | 969 ft | 113 kts | 92° |
| 2026-04-25 01:39 | 26.68086 | -80.08003 | 1359 ft | 123 kts | 92° |
| 2026-04-25 01:40 | 26.68049 | -80.07027 | 1783 ft | 131 kts | 93° |
| 2026-04-25 01:40 | 26.68024 | -80.05973 | 2244 ft | 139 kts | 93° |
| 2026-04-25 01:40 | 26.67994 | -80.04871 | 2688 ft | 143 kts | 93° |
| 2026-04-25 01:40 | 26.67832 | -80.03780 | 3071 ft | 145 kts | 121° |
| 2026-04-25 01:41 | 26.66998 | -80.03194 | 3462 ft | 149 kts | 173° |
| 2026-04-25 01:41 | 26.66046 | -80.03585 | 3821 ft | 152 kts | 225° |
| 2026-04-25 01:41 | 26.65680 | -80.04671 | 4199 ft | 154 kts | 273° |
| 2026-04-25 01:41 | 26.66069 | -80.05762 | 4581 ft | 153 kts | 304° |
| 2026-04-25 01:42 | 26.66704 | -80.06712 | 4955 ft | 152 kts | 308° |
| 2026-04-25 01:42 | 26.67339 | -80.07653 | 5312 ft | 152 kts | 303° |
| 2026-04-25 01:42 | 26.67788 | -80.08714 | 5682 ft | 151 kts | 288° |
| 2026-04-25 01:42 | 26.67999 | -80.09866 | 6052 ft | 151 kts | 278° |
| 2026-04-25 01:43 | 26.68058 | -80.11041 | 6422 ft | 151 kts | 272° |
| 2026-04-25 01:43 | 26.68030 | -80.12214 | 6765 ft | 151 kts | 270° |
| 2026-04-25 01:43 | 26.67955 | -80.13383 | 7120 ft | 151 kts | 268° |
| 2026-04-25 01:43 | 26.67857 | -80.14547 | 7479 ft | 150 kts | 266° |
| 2026-04-25 01:44 | 26.67748 | -80.15707 | 7837 ft | 150 kts | 266° |
| 2026-04-25 01:44 | 26.67634 | -80.16863 | 8202 ft | 150 kts | 266° |
| 2026-04-25 01:44 | 26.67520 | -80.18017 | 8567 ft | 149 kts | 266° |
| 2026-04-25 01:44 | 26.67404 | -80.19167 | 8942 ft | 149 kts | 266° |
| 2026-04-25 01:45 | 26.67289 | -80.20317 | 9323 ft | 148 kts | 266° |
| 2026-04-25 01:45 | 26.67176 | -80.21461 | 9707 ft | 148 kts | 267° |
| 2026-04-25 01:45 | 26.67063 | -80.22604 | 10072 ft | 148 kts | 267° |
| 2026-04-25 01:45 | 26.66950 | -80.23741 | 10423 ft | 147 kts | 267° |
| 2026-04-25 01:46 | 26.66837 | -80.24876 | 10778 ft | 147 kts | 267° |
| 2026-04-25 01:46 | 26.66725 | -80.26006 | 11136 ft | 146 kts | 266° |
| 2026-04-25 01:46 | 26.66613 | -80.27134 | 11500 ft | 146 kts | 266° |
| 2026-04-25 01:46 | 26.66501 | -80.28258 | 11867 ft | 145 kts | 266° |
| 2026-04-25 01:47 | 26.66389 | -80.29379 | 12238 ft | 145 kts | 266° |
| 2026-04-25 01:47 | 26.66278 | -80.30499 | 12617 ft | 145 kts | 266° |
| 2026-04-25 01:47 | 26.66167 | -80.31613 | 12995 ft | 144 kts | 266° |
| 2026-04-25 01:47 | 26.66058 | -80.32710 | 13373 ft | 144 kts | 266° |
| 2026-04-25 01:48 | 26.65947 | -80.33816 | 13761 ft | 143 kts | 266° |
| 2026-04-25 01:48 | 26.65836 | -80.34921 | 14111 ft | 143 kts | 266° |
| 2026-04-25 01:48 | 26.65726 | -80.36025 | 14461 ft | 143 kts | 266° |
| 2026-04-25 01:48 | 26.65617 | -80.37127 | 14814 ft | 143 kts | 266° |
| 2026-04-25 01:49 | 26.65507 | -80.38228 | 15169 ft | 142 kts | 266° |
| 2026-04-25 01:49 | 26.65397 | -80.39328 | 15525 ft | 142 kts | 266° |
| 2026-04-25 01:49 | 26.65287 | -80.40425 | 15894 ft | 142 kts | 266° |
| 2026-04-25 01:49 | 26.65171 | -80.41589 | 15961 ft | 158 kts | 266° |
| 2026-04-25 01:50 | 26.65050 | -80.42849 | 15984 ft | 167 kts | 266° |
| 2026-04-25 01:50 | 26.64963 | -80.43731 | 15990 ft | 171 kts | 266° |
| 2026-04-25 01:50 | 26.64828 | -80.45059 | 15993 ft | 173 kts | 266° |
| 2026-04-25 01:50 | 26.64690 | -80.46403 | 15993 ft | 175 kts | 266° |
| 2026-04-25 01:51 | 26.64549 | -80.47754 | 15992 ft | 175 kts | 266° |
| 2026-04-25 01:51 | 26.64409 | -80.49108 | 15991 ft | 176 kts | 266° |
| 2026-04-25 01:51 | 26.64271 | -80.50447 | 15991 ft | 176 kts | 266° |
| 2026-04-25 01:51 | 26.64132 | -80.51806 | 15992 ft | 176 kts | 266° |
| 2026-04-25 01:52 | 26.63993 | -80.53166 | 15989 ft | 176 kts | 266° |
| 2026-04-25 01:52 | 26.63854 | -80.54526 | 15991 ft | 176 kts | 266° |
| 2026-04-25 01:52 | 26.63716 | -80.55886 | 15990 ft | 176 kts | 266° |
| 2026-04-25 01:52 | 26.63578 | -80.57248 | 15990 ft | 176 kts | 266° |
| 2026-04-25 01:53 | 26.63438 | -80.58608 | 15992 ft | 176 kts | 266° |
| 2026-04-25 01:53 | 26.63300 | -80.59968 | 15992 ft | 176 kts | 266° |
| 2026-04-25 01:53 | 26.63161 | -80.61330 | 15992 ft | 176 kts | 266° |
| 2026-04-25 01:53 | 26.63019 | -80.62692 | 15992 ft | 177 kts | 266° |
| 2026-04-25 01:54 | 26.62880 | -80.64054 | 15992 ft | 177 kts | 266° |
| 2026-04-25 01:54 | 26.62743 | -80.65420 | 15992 ft | 177 kts | 266° |
| 2026-04-25 01:54 | 26.62593 | -80.66783 | 15988 ft | 176 kts | 266° |
| 2026-04-25 01:54 | 26.62459 | -80.68145 | 15989 ft | 176 kts | 266° |
| 2026-04-25 01:55 | 26.62327 | -80.69507 | 15985 ft | 176 kts | 266° |
| 2026-04-25 01:55 | 26.62190 | -80.70868 | 15983 ft | 176 kts | 266° |
| 2026-04-25 01:55 | 26.62051 | -80.72229 | 15988 ft | 176 kts | 266° |
| 2026-04-25 01:55 | 26.61910 | -80.73591 | 15988 ft | 176 kts | 266° |
| 2026-04-25 01:56 | 26.61769 | -80.74952 | 15985 ft | 176 kts | 266° |
| 2026-04-25 01:56 | 26.61627 | -80.76319 | 15989 ft | 180 kts | 266° |
| 2026-04-25 01:56 | 26.61486 | -80.77746 | 15985 ft | 189 kts | 269° |
| 2026-04-25 01:56 | 26.61655 | -80.79219 | 15997 ft | 195 kts | 288° |
| 2026-04-25 01:57 | 26.62640 | -80.82082 | 15986 ft | 199 kts | 292° |
| 2026-04-25 01:57 | 26.63164 | -80.83516 | 15989 ft | 200 kts | 292° |
| 2026-04-25 01:57 | 26.63689 | -80.84953 | 15981 ft | 200 kts | 292° |
| 2026-04-25 01:58 | 26.64210 | -80.86392 | 15986 ft | 200 kts | 292° |
| 2026-04-25 01:58 | 26.64729 | -80.87834 | 15983 ft | 200 kts | 292° |
| 2026-04-25 01:58 | 26.65244 | -80.89275 | 15977 ft | 199 kts | 292° |
| 2026-04-25 01:58 | 26.65757 | -80.90713 | 15975 ft | 199 kts | 292° |
| 2026-04-25 01:59 | 26.66269 | -80.92153 | 15977 ft | 199 kts | 292° |
| 2026-04-25 01:59 | 26.66781 | -80.93592 | 15978 ft | 199 kts | 292° |
| 2026-04-25 01:59 | 26.67291 | -80.95029 | 15976 ft | 199 kts | 292° |
| 2026-04-25 01:59 | 26.67802 | -80.96469 | 15980 ft | 199 kts | 292° |
| 2026-04-25 02:00 | 26.68312 | -80.97910 | 15984 ft | 200 kts | 292° |
| 2026-04-25 02:00 | 26.68824 | -80.99352 | 15982 ft | 200 kts | 292° |
| 2026-04-25 02:00 | 26.69335 | -81.00796 | 15979 ft | 200 kts | 292° |
| 2026-04-25 02:00 | 26.69846 | -81.02239 | 15979 ft | 200 kts | 292° |
| 2026-04-25 02:01 | 26.70357 | -81.03683 | 15984 ft | 200 kts | 292° |
| 2026-04-25 02:01 | 26.70866 | -81.05126 | 15986 ft | 200 kts | 292° |
| 2026-04-25 02:01 | 26.71376 | -81.06569 | 15980 ft | 199 kts | 292° |
| 2026-04-25 02:01 | 26.71886 | -81.08011 | 15983 ft | 199 kts | 292° |
| 2026-04-25 02:02 | 26.72396 | -81.09455 | 15989 ft | 200 kts | 292° |
| 2026-04-25 02:02 | 26.72906 | -81.10901 | 15978 ft | 199 kts | 292° |
| 2026-04-25 02:02 | 26.73415 | -81.12343 | 15977 ft | 199 kts | 292° |
| 2026-04-25 02:02 | 26.73924 | -81.13785 | 15979 ft | 199 kts | 292° |
| 2026-04-25 02:03 | 26.74433 | -81.15227 | 15986 ft | 199 kts | 292° |
| 2026-04-25 02:03 | 26.74942 | -81.16671 | 15983 ft | 200 kts | 292° |
| 2026-04-25 02:03 | 26.75450 | -81.18113 | 15985 ft | 200 kts | 292° |
| 2026-04-25 02:03 | 26.75960 | -81.19558 | 15996 ft | 200 kts | 292° |
| 2026-04-25 02:04 | 26.76471 | -81.21008 | 15985 ft | 200 kts | 292° |
| 2026-04-25 02:04 | 26.76980 | -81.22454 | 15981 ft | 200 kts | 292° |
| 2026-04-25 02:04 | 26.77491 | -81.23902 | 15983 ft | 200 kts | 292° |
| 2026-04-25 02:04 | 26.78000 | -81.25350 | 15984 ft | 200 kts | 292° |
| 2026-04-25 02:05 | 26.78509 | -81.26799 | 15980 ft | 200 kts | 292° |
| 2026-04-25 02:05 | 26.79016 | -81.28244 | 15972 ft | 199 kts | 292° |
| 2026-04-25 02:05 | 26.79520 | -81.29686 | 15973 ft | 199 kts | 292° |
| 2026-04-25 02:05 | 26.80027 | -81.31128 | 15983 ft | 199 kts | 292° |
| 2026-04-25 02:06 | 26.80535 | -81.32569 | 15980 ft | 197 kts | 292° |
| 2026-04-25 02:06 | 26.81029 | -81.33962 | 15973 ft | 193 kts | 292° |
| 2026-04-25 02:06 | 26.81523 | -81.35373 | 15978 ft | 196 kts | 292° |
| 2026-04-25 02:06 | 26.82023 | -81.36803 | 15981 ft | 198 kts | 292° |
| 2026-04-25 02:07 | 26.82528 | -81.38241 | 15981 ft | 199 kts | 292° |
| 2026-04-25 02:07 | 26.82928 | -81.39725 | 15980 ft | 200 kts | 283° |
| 2026-04-25 02:07 | 26.83136 | -81.41266 | 15971 ft | 200 kts | 281° |
| 2026-04-25 02:07 | 26.83360 | -81.42800 | 15971 ft | 199 kts | 282° |
| 2026-04-25 02:08 | 26.83595 | -81.44328 | 15971 ft | 199 kts | 282° |
| 2026-04-25 02:08 | 26.83830 | -81.45856 | 15971 ft | 199 kts | 282° |
| 2026-04-25 02:08 | 26.84062 | -81.47364 | 15971 ft | 199 kts | 282° |
| 2026-04-25 02:08 | 26.84298 | -81.48912 | 15973 ft | 199 kts | 282° |
| 2026-04-25 02:09 | 26.84525 | -81.50419 | 15977 ft | 199 kts | 282° |
| 2026-04-25 02:09 | 26.84754 | -81.51947 | 15978 ft | 199 kts | 282° |
| 2026-04-25 02:09 | 26.84982 | -81.53477 | 15973 ft | 199 kts | 282° |
| 2026-04-25 02:09 | 26.85208 | -81.55005 | 15968 ft | 199 kts | 282° |
| 2026-04-25 02:10 | 26.85435 | -81.56528 | 15967 ft | 198 kts | 282° |
| 2026-04-25 02:10 | 26.85659 | -81.58049 | 15971 ft | 198 kts | 282° |
| 2026-04-25 02:10 | 26.85884 | -81.59571 | 15972 ft | 198 kts | 282° |
| 2026-04-25 02:10 | 26.86109 | -81.61095 | 15977 ft | 198 kts | 282° |
| 2026-04-25 02:11 | 26.86334 | -81.62618 | 15976 ft | 198 kts | 282° |
| 2026-04-25 02:11 | 26.86558 | -81.64139 | 15978 ft | 198 kts | 282° |
| 2026-04-25 02:11 | 26.86782 | -81.65660 | 15976 ft | 198 kts | 282° |
| 2026-04-25 02:11 | 26.87006 | -81.67179 | 15974 ft | 198 kts | 282° |
| 2026-04-25 02:12 | 26.87230 | -81.68703 | 15910 ft | 200 kts | 281° |
| 2026-04-25 02:12 | 26.87460 | -81.70270 | 15681 ft | 206 kts | 281° |
| 2026-04-25 02:12 | 26.87690 | -81.71820 | 15443 ft | 190 kts | 282° |
| 2026-04-25 02:12 | 26.87899 | -81.73206 | 15205 ft | 174 kts | 281° |
| 2026-04-25 02:13 | 26.88092 | -81.74516 | 14969 ft | 168 kts | 281° |
| 2026-04-25 02:13 | 26.88280 | -81.75799 | 14746 ft | 166 kts | 281° |
| 2026-04-25 02:13 | 26.88466 | -81.77069 | 14510 ft | 165 kts | 281° |
| 2026-04-25 02:13 | 26.88653 | -81.78347 | 14170 ft | 168 kts | 281° |
| 2026-04-25 02:14 | 26.88843 | -81.79640 | 13832 ft | 169 kts | 281° |
| 2026-04-25 02:14 | 26.89033 | -81.80938 | 13451 ft | 169 kts | 281° |
| 2026-04-25 02:14 | 26.89225 | -81.82240 | 13074 ft | 170 kts | 281° |
| 2026-04-25 02:14 | 26.89416 | -81.83545 | 12692 ft | 170 kts | 281° |
| 2026-04-25 02:15 | 26.89607 | -81.84853 | 12315 ft | 170 kts | 281° |
| 2026-04-25 02:15 | 26.89799 | -81.86164 | 11944 ft | 171 kts | 281° |
| 2026-04-25 02:15 | 26.89991 | -81.87479 | 11581 ft | 171 kts | 281° |
| 2026-04-25 02:15 | 26.90184 | -81.88800 | 11222 ft | 172 kts | 281° |
| 2026-04-25 02:16 | 26.90378 | -81.90125 | 10863 ft | 173 kts | 281° |
| 2026-04-25 02:16 | 26.90571 | -81.91454 | 10512 ft | 173 kts | 281° |
| 2026-04-25 02:16 | 26.90767 | -81.92787 | 10146 ft | 173 kts | 281° |
| 2026-04-25 02:16 | 26.90961 | -81.94122 | 9807 ft | 174 kts | 281° |
| 2026-04-25 02:17 | 26.91155 | -81.95463 | 9422 ft | 174 kts | 281° |
| 2026-04-25 02:17 | 26.91349 | -81.96806 | 9036 ft | 175 kts | 281° |
| 2026-04-25 02:17 | 26.91545 | -81.98152 | 8656 ft | 175 kts | 281° |
| 2026-04-25 02:17 | 26.91965 | -81.99415 | 8280 ft | 174 kts | 304° |
| 2026-04-25 02:18 | 26.92811 | -82.00376 | 7915 ft | 174 kts | 318° |
| 2026-04-25 02:18 | 26.93676 | -82.01330 | 7545 ft | 175 kts | 315° |
| 2026-04-25 02:18 | 26.94503 | -82.02314 | 7161 ft | 176 kts | 314° |
| 2026-04-25 02:18 | 26.95330 | -82.03312 | 6750 ft | 174 kts | 314° |
| 2026-04-25 02:19 | 26.96154 | -82.04303 | 6310 ft | 174 kts | 314° |
| 2026-04-25 02:19 | 26.96983 | -82.05293 | 5880 ft | 175 kts | 315° |
| 2026-04-25 02:19 | 26.97818 | -82.06282 | 5442 ft | 175 kts | 315° |
| 2026-04-25 02:19 | 26.98654 | -82.07266 | 4999 ft | 174 kts | 315° |
| 2026-04-25 02:20 | 26.99491 | -82.08252 | 4562 ft | 175 kts | 315° |
| 2026-04-25 02:20 | 27.00330 | -82.09234 | 4115 ft | 173 kts | 315° |
| 2026-04-25 02:20 | 27.01157 | -82.10206 | 3660 ft | 172 kts | 314° |
| 2026-04-25 02:20 | 27.01983 | -82.11173 | 3223 ft | 171 kts | 314° |
| 2026-04-25 02:21 | 27.02801 | -82.12134 | 2792 ft | 170 kts | 314° |
| 2026-04-25 02:21 | 27.03613 | -82.13086 | 2360 ft | 168 kts | 314° |
| 2026-04-25 02:21 | 27.04408 | -82.14018 | 2073 ft | 159 kts | 314° |
| 2026-04-25 02:21 | 27.05150 | -82.14887 | 2027 ft | 151 kts | 314° |
| 2026-04-25 02:22 | 27.05866 | -82.15732 | 2023 ft | 149 kts | 314° |
| 2026-04-25 02:22 | 27.06576 | -82.16569 | 2014 ft | 148 kts | 314° |
| 2026-04-25 02:22 | 27.07284 | -82.17402 | 2010 ft | 148 kts | 314° |
| 2026-04-25 02:22 | 27.07995 | -82.18232 | 1999 ft | 147 kts | 314° |
| 2026-04-25 02:23 | 27.08703 | -82.19061 | 1999 ft | 147 kts | 314° |
| 2026-04-25 02:23 | 27.09407 | -82.19895 | 1991 ft | 147 kts | 313° |
| 2026-04-25 02:23 | 27.10099 | -82.20738 | 1987 ft | 147 kts | 313° |
| 2026-04-25 02:23 | 27.10789 | -82.21581 | 1984 ft | 146 kts | 313° |
| 2026-04-25 02:24 | 27.11479 | -82.22423 | 1996 ft | 147 kts | 313° |
| 2026-04-25 02:24 | 27.12175 | -82.23267 | 2003 ft | 148 kts | 313° |
| 2026-04-25 02:24 | 27.12874 | -82.24115 | 1992 ft | 148 kts | 313° |
| 2026-04-25 02:24 | 27.13569 | -82.24960 | 1990 ft | 147 kts | 313° |
| 2026-04-25 02:25 | 27.14265 | -82.25803 | 1990 ft | 147 kts | 313° |
| 2026-04-25 02:25 | 27.14961 | -82.26652 | 1991 ft | 148 kts | 313° |
| 2026-04-25 02:25 | 27.15653 | -82.27495 | 1971 ft | 146 kts | 313° |
| 2026-04-25 02:25 | 27.16342 | -82.28333 | 1966 ft | 146 kts | 313° |
| 2026-04-25 02:26 | 27.17029 | -82.29169 | 1969 ft | 145 kts | 313° |
| 2026-04-25 02:26 | 27.17715 | -82.30004 | 1967 ft | 145 kts | 313° |
| 2026-04-25 02:26 | 27.18403 | -82.30837 | 1995 ft | 146 kts | 313° |
| 2026-04-25 02:26 | 27.19093 | -82.31678 | 1997 ft | 147 kts | 313° |
| 2026-04-25 02:27 | 27.19786 | -82.32519 | 1991 ft | 146 kts | 313° |
| 2026-04-25 02:27 | 27.20477 | -82.33361 | 2017 ft | 147 kts | 313° |
| 2026-04-25 02:27 | 27.21172 | -82.34207 | 2004 ft | 147 kts | 313° |
| 2026-04-25 02:27 | 27.21865 | -82.35049 | 1992 ft | 147 kts | 313° |
| 2026-04-25 02:28 | 27.22555 | -82.35892 | 2002 ft | 147 kts | 312° |
| 2026-04-25 02:28 | 27.23251 | -82.36737 | 2014 ft | 148 kts | 313° |
| 2026-04-25 02:28 | 27.23940 | -82.37574 | 2012 ft | 148 kts | 313° |
| 2026-04-25 02:28 | 27.24638 | -82.38425 | 2020 ft | 148 kts | 313° |
| 2026-04-25 02:29 | 27.25337 | -82.39275 | 2012 ft | 148 kts | 313° |
| 2026-04-25 02:29 | 27.26038 | -82.40112 | 2005 ft | 147 kts | 315° |
| 2026-04-25 02:29 | 27.26765 | -82.40912 | 2007 ft | 146 kts | 316° |
| 2026-04-25 02:29 | 27.27490 | -82.41722 | 2015 ft | 147 kts | 315° |
| 2026-04-25 02:30 | 27.28202 | -82.42541 | 2009 ft | 146 kts | 314° |
| 2026-04-25 02:30 | 27.28912 | -82.43359 | 2010 ft | 147 kts | 314° |
| 2026-04-25 02:30 | 27.29614 | -82.44178 | 2026 ft | 139 kts | 316° |
| 2026-04-25 02:30 | 27.30227 | -82.44848 | 2015 ft | 113 kts | 315° |
| 2026-04-25 02:31 | 27.30758 | -82.45470 | 2015 ft | 108 kts | 314° |
| 2026-04-25 02:31 | 27.31280 | -82.46069 | 2011 ft | 106 kts | 315° |
| 2026-04-25 02:31 | 27.31798 | -82.46655 | 1983 ft | 106 kts | 315° |
| 2026-04-25 02:31 | 27.32319 | -82.47247 | 1868 ft | 104 kts | 316° |
| 2026-04-25 02:32 | 27.32816 | -82.47805 | 1723 ft | 99 kts | 316° |
| 2026-04-25 02:32 | 27.33288 | -82.48358 | 1612 ft | 99 kts | 315° |
| 2026-04-25 02:32 | 27.33769 | -82.48908 | 1473 ft | 99 kts | 315° |
| 2026-04-25 02:32 | 27.34226 | -82.49427 | 1344 ft | 89 kts | 316° |
| 2026-04-25 02:33 | 27.34647 | -82.49912 | 1224 ft | 86 kts | 315° |
| 2026-04-25 02:33 | 27.35063 | -82.50389 | 1094 ft | 85 kts | 316° |
| 2026-04-25 02:33 | 27.35477 | -82.50860 | 1006 ft | 85 kts | 315° |
| 2026-04-25 02:33 | 27.35893 | -82.51333 | 890 ft | 85 kts | 316° |
| 2026-04-25 02:34 | 27.36305 | -82.51804 | 770 ft | 84 kts | 315° |
| 2026-04-25 02:34 | 27.36707 | -82.52275 | 667 ft | 83 kts | 315° |
| 2026-04-25 02:34 | 27.37117 | -82.52734 | 548 ft | 83 kts | 316° |
| 2026-04-25 02:34 | 27.37519 | -82.53193 | 434 ft | 82 kts | 314° |
| 2026-04-25 02:35 | 27.37913 | -82.53647 | 333 ft | 76 kts | 316° |
| 2026-04-25 02:35 | 27.38254 | -82.54035 | 232 ft | 73 kts | 314° |
| 2026-04-25 02:35 | 27.38633 | -82.54483 | 131 ft | 76 kts | 314° |
| 2026-04-25 02:35 | 27.38988 | -82.54887 | 35 ft | 68 kts | 315° |
| 2026-04-25 02:36 | 27.39190 | -82.55118 | 25 ft | 58 kts | 316° |
| 2026-04-25 02:36 | 27.39405 | -82.55361 | 23 ft | 24 kts | 315° |
| 2026-04-25 02:36 | 27.39494 | -82.55328 | 23 ft | 16 kts | 59° |
| 2026-04-25 02:36 | 27.39480 | -82.55261 | 24 ft | 9 kts | 131° |
| 2026-04-25 02:37 | 27.39415 | -82.55186 | 27 ft | 14 kts | 137° |
| 2026-04-25 02:37 | 27.39357 | -82.55123 | 24 ft | 10 kts | 134° |
| 2026-04-25 02:37 | 27.39306 | -82.55062 | 24 ft | 15 kts | 133° |
| 2026-04-25 02:37 | 27.39233 | -82.54977 | 24 ft | 18 kts | 132° |
| 2026-04-25 02:38 | 27.39204 | -82.54878 | 27 ft | 8 kts | 12° |
| 2026-04-25 02:38 | 27.39270 | -82.54876 | 25 ft | 8 kts | 1° |
| 2026-04-25 02:38 | 27.39338 | -82.54871 | 25 ft | 8 kts | 32° |
| 2026-04-25 02:38 | 27.39355 | -82.54818 | 25 ft | 6 kts | 43° |
| 2026-04-25 02:39 | 27.39382 | -82.54813 | 25 ft | 0 kts | 0° |